createdAt,value
2023-02-18T00:01:35.699Z,99.90
2023-02-18T00:04:03.557Z,99.70
2023-02-18T00:06:34.343Z,99.20
2023-02-18T00:09:02.780Z,99.90
2023-02-18T00:11:34.495Z,98.70
2023-02-18T00:14:03.974Z,99.00
2023-02-18T00:16:32.107Z,99.90
2023-02-18T00:19:02.344Z,99.70
2023-02-18T00:21:30.374Z,99.70
2023-02-18T00:23:58.439Z,99.90
2023-02-18T00:26:26.580Z,99.90
2023-02-18T00:28:54.549Z,99.40
2023-02-18T00:31:27.940Z,98.10
2023-02-18T00:33:57.994Z,99.70
2023-02-18T00:36:26.618Z,99.90
2023-02-18T00:38:56.527Z,99.30
2023-02-18T00:41:26.967Z,99.00
2023-02-18T00:43:55.456Z,98.60
2023-02-18T00:46:24.336Z,98.20
2023-02-18T00:48:52.243Z,97.90
2023-02-18T00:51:21.506Z,98.50
2023-02-18T00:53:50.517Z,98.00
2023-02-18T00:56:19.450Z,97.60
2023-02-18T00:58:47.156Z,96.90
2023-02-18T01:01:15.311Z,97.30
2023-02-18T01:03:43.945Z,97.70
2023-02-18T01:06:13.243Z,98.00
2023-02-18T01:08:41.832Z,98.20
2023-02-18T01:11:11.083Z,98.50
2023-02-18T01:13:39.353Z,98.20
2023-02-18T01:16:08.984Z,98.90
2023-02-18T01:18:38.372Z,98.60
2023-02-18T01:21:08.763Z,97.80
2023-02-18T01:23:38.376Z,97.70
2023-02-18T01:26:06.859Z,97.30
2023-02-18T01:28:34.884Z,96.60
2023-02-18T01:31:11.764Z,97.70
2023-02-18T01:33:39.806Z,97.80
2023-02-18T01:36:09.176Z,97.50
2023-02-18T01:38:37.606Z,97.50
2023-02-18T01:41:06.116Z,96.70
2023-02-18T01:43:34.994Z,97.20
2023-02-18T01:46:13.794Z,96.70
2023-02-18T01:49:00.581Z,96.50
2023-02-18T01:51:37.946Z,96.00
2023-02-18T01:54:16.806Z,95.80
2023-02-18T01:56:49.085Z,96.00
2023-02-18T01:59:25.143Z,96.10
2023-02-18T02:01:54.149Z,96.20
2023-02-18T02:04:22.566Z,95.30
2023-02-18T02:06:50.285Z,95.40
2023-02-18T02:09:20.797Z,96.10
2023-02-18T02:12:16.355Z,96.00
2023-02-18T02:15:14.267Z,95.30
2023-02-18T02:17:59.961Z,94.80
2023-02-18T02:21:05.101Z,94.80
2023-02-18T02:23:38.836Z,95.00
2023-02-18T02:26:28.373Z,96.10
2023-02-18T02:29:18.350Z,96.50
2023-02-18T02:31:45.917Z,95.60
2023-02-18T02:34:32.876Z,96.00
2023-02-18T02:37:12.665Z,95.90
2023-02-18T02:39:53.650Z,96.10
2023-02-18T02:42:58.033Z,95.30
2023-02-18T02:45:56.700Z,95.50
2023-02-18T02:48:37.939Z,95.70
2023-02-18T02:51:25.161Z,95.90
2023-02-18T02:53:52.871Z,95.10
2023-02-18T02:56:24.295Z,95.30
2023-02-18T02:59:04.482Z,94.90
2023-02-18T03:02:08.747Z,95.60
2023-02-18T03:04:42.338Z,95.70
2023-02-18T03:07:43.469Z,95.70
2023-02-18T03:10:39.985Z,95.70
2023-02-18T03:13:42.315Z,95.20
2023-02-18T03:16:27.916Z,95.40
2023-02-18T03:19:00.312Z,95.70
2023-02-18T03:21:35.299Z,95.50
2023-02-18T03:27:40.936Z,95.60
2023-02-18T03:30:29.504Z,95.80
2023-02-18T03:33:06.775Z,95.40
2023-02-18T03:36:02.129Z,95.30
2023-02-18T03:38:45.716Z,95.30
2023-02-18T03:41:14.394Z,95.30
2023-02-18T03:43:55.373Z,95.30
2023-02-18T03:46:23.343Z,95.10
2023-02-18T03:48:51.361Z,95.20
2023-02-18T03:51:22.494Z,96.30
2023-02-18T03:53:50.233Z,95.80
2023-02-18T03:56:18.600Z,95.90
2023-02-18T03:58:46.542Z,95.90
2023-02-18T04:01:28.021Z,95.90
2023-02-18T04:04:00.342Z,96.20
2023-02-18T04:06:32.210Z,96.50
2023-02-18T04:09:00.542Z,95.90
2023-02-18T04:11:28.153Z,95.40
2023-02-18T04:13:55.782Z,96.20
2023-02-18T04:16:23.487Z,96.00
2023-02-18T04:18:52.279Z,96.00
2023-02-18T04:21:19.851Z,96.60
2023-02-18T04:23:51.578Z,96.70
2023-02-18T04:26:19.445Z,97.40
2023-02-18T04:28:47.181Z,97.10
2023-02-18T04:31:15.648Z,97.70
2023-02-18T04:33:43.691Z,98.60
2023-02-18T04:36:11.471Z,99.60
2023-02-18T04:38:39.237Z,99.20
2023-02-18T04:41:07.005Z,99.90
2023-02-18T04:43:34.676Z,99.90
2023-02-18T04:46:02.491Z,99.90
2023-02-18T04:48:30.644Z,99.90
2023-02-18T04:50:58.284Z,99.90
2023-02-18T04:53:26.701Z,99.90
2023-02-18T04:55:54.762Z,99.90
2023-02-18T04:58:22.834Z,99.90
2023-02-18T05:00:50.404Z,99.90
2023-02-18T05:03:18.051Z,99.90
2023-02-18T05:05:46.156Z,99.90
2023-02-18T05:08:14.114Z,99.90
2023-02-18T05:10:41.967Z,99.90
2023-02-18T05:13:09.642Z,99.90
2023-02-18T05:15:37.446Z,99.90
2023-02-18T05:18:05.315Z,99.90
2023-02-18T05:20:33.114Z,99.90
2023-02-18T05:23:00.694Z,99.90
2023-02-18T05:25:28.452Z,99.90
2023-02-18T05:27:56.061Z,99.90
2023-02-18T05:30:23.864Z,99.90
2023-02-18T05:32:51.586Z,99.90
2023-02-18T05:35:19.206Z,99.90
2023-02-18T05:37:46.832Z,99.90
2023-02-18T05:40:14.409Z,99.90
2023-02-18T05:42:42.224Z,99.90
2023-02-18T05:45:10.068Z,99.90
2023-02-18T05:47:37.645Z,99.90
2023-02-18T05:50:06.103Z,99.90
2023-02-18T05:52:33.820Z,99.90
2023-02-18T05:55:01.745Z,99.90
2023-02-18T05:57:29.434Z,99.90
2023-02-18T05:59:59.846Z,99.90
2023-02-18T06:02:27.728Z,99.90
2023-02-18T06:04:55.432Z,99.90
2023-02-18T06:07:23.054Z,99.90
2023-02-18T06:09:50.740Z,99.90
2023-02-18T06:12:20.321Z,99.90
2023-02-18T06:14:48.727Z,99.90
2023-02-18T06:17:18.804Z,99.90
2023-02-18T06:19:46.526Z,99.90
2023-02-18T06:22:14.378Z,99.90
2023-02-18T06:24:42.062Z,99.90
2023-02-18T06:27:09.701Z,99.90
2023-02-18T06:29:37.375Z,99.90
2023-02-18T06:32:05.480Z,99.90
2023-02-18T06:34:33.393Z,99.90
2023-02-18T06:37:01.439Z,99.90
2023-02-18T06:39:29.562Z,99.90
2023-02-18T06:41:57.430Z,99.90
2023-02-18T06:44:25.281Z,99.90
2023-02-18T06:46:52.866Z,99.90
2023-02-18T06:49:20.454Z,99.90
2023-02-18T06:51:47.974Z,99.90
2023-02-18T06:54:15.628Z,99.90
2023-02-18T06:56:43.286Z,99.90
2023-02-18T06:59:11.746Z,99.90
2023-02-18T07:01:39.591Z,99.90
2023-02-18T07:04:07.220Z,99.90
2023-02-18T07:06:34.889Z,99.90
2023-02-18T07:09:02.522Z,99.90
2023-02-18T07:11:30.102Z,99.90
2023-02-18T07:13:57.807Z,99.90
2023-02-18T07:16:25.438Z,99.90
2023-02-18T07:18:53.084Z,99.90
2023-02-18T07:21:20.712Z,99.90
2023-02-18T07:23:48.304Z,99.90
2023-02-18T07:26:15.898Z,99.90
2023-02-18T07:28:43.760Z,99.90
2023-02-18T07:31:11.633Z,99.90
2023-02-18T07:33:39.308Z,99.90
2023-02-18T07:36:08.306Z,99.90
2023-02-18T07:38:36.032Z,99.90
2023-02-18T07:41:03.687Z,99.90
2023-02-18T07:43:31.657Z,99.90
2023-02-18T07:45:59.282Z,99.90
2023-02-18T07:48:27.135Z,99.90
2023-02-18T07:50:54.719Z,99.90
2023-02-18T07:53:22.226Z,99.90
2023-02-18T07:55:50.238Z,99.90
2023-02-18T07:58:30.507Z,99.90
2023-02-18T08:00:58.915Z,99.90
2023-02-18T08:03:32.167Z,99.90
2023-02-18T08:06:01.055Z,99.50
2023-02-18T08:08:30.611Z,99.40
2023-02-18T08:11:13.249Z,99.90
2023-02-18T08:13:47.202Z,99.90
2023-02-18T08:16:16.681Z,99.90
2023-02-18T08:18:44.846Z,99.90
2023-02-18T08:21:12.771Z,99.30
2023-02-18T08:23:40.897Z,99.80
2023-02-18T08:26:09.696Z,99.90
2023-02-18T08:28:44.171Z,99.90
2023-02-18T08:31:25.507Z,99.90
2023-02-18T08:33:55.153Z,99.90
2023-02-18T08:36:23.318Z,99.90
2023-02-18T08:38:50.976Z,98.80
2023-02-18T08:41:19.446Z,98.10
2023-02-18T08:43:47.867Z,98.40
2023-02-18T08:46:16.777Z,98.50
2023-02-18T08:49:01.538Z,97.90
2023-02-18T08:51:30.109Z,99.50
2023-02-18T08:53:57.738Z,99.80
2023-02-18T08:56:25.778Z,98.30
2023-02-18T08:58:53.450Z,97.20
2023-02-18T09:01:21.165Z,98.10
2023-02-18T09:03:48.900Z,97.80
2023-02-18T09:06:17.120Z,97.60
2023-02-18T09:08:45.207Z,98.10
2023-02-18T09:11:13.411Z,97.80
2023-02-18T09:13:41.123Z,97.10
2023-02-18T09:16:15.876Z,98.70
2023-02-18T09:18:44.029Z,98.30
2023-02-18T09:21:13.752Z,97.80
2023-02-18T09:23:42.035Z,98.30
2023-02-18T09:26:13.113Z,99.90
2023-02-18T09:28:40.967Z,98.60
2023-02-18T09:31:12.826Z,98.30
2023-02-18T09:33:45.773Z,98.70
2023-02-18T09:36:14.237Z,98.40
2023-02-18T09:38:41.948Z,97.10
2023-02-18T09:41:20.317Z,95.30
2023-02-18T09:43:51.446Z,95.70
2023-02-18T09:46:32.634Z,96.30
2023-02-18T09:49:07.691Z,96.40
2023-02-18T09:51:35.378Z,96.10
2023-02-18T09:54:02.997Z,95.90
2023-02-18T09:56:35.539Z,96.60
2023-02-18T09:59:04.924Z,94.70
2023-02-18T10:01:38.936Z,94.60
2023-02-18T10:04:43.084Z,97.10
2023-02-18T10:07:21.574Z,95.30
2023-02-18T10:09:52.021Z,96.20
2023-02-18T10:12:22.910Z,94.60
2023-02-18T10:14:54.069Z,95.50
2023-02-18T10:17:24.702Z,96.30
2023-02-18T10:19:55.461Z,95.50
2023-02-18T10:22:25.265Z,96.20
2023-02-18T10:24:59.614Z,96.90
2023-02-18T10:27:31.103Z,94.80
2023-02-18T10:30:25.153Z,96.90
2023-02-18T10:33:02.835Z,96.30
2023-02-18T10:35:30.636Z,96.30
2023-02-18T10:38:41.986Z,98.00
2023-02-18T10:41:15.532Z,96.10
2023-02-18T10:44:09.324Z,96.90
2023-02-18T10:46:51.647Z,97.50
2023-02-18T10:49:37.380Z,99.50
2023-02-18T10:52:06.885Z,98.30
2023-02-18T10:55:00.616Z,99.10
2023-02-18T10:57:28.326Z,95.90
2023-02-18T11:00:26.887Z,96.00
2023-02-18T11:03:18.279Z,97.90
2023-02-18T11:05:48.220Z,96.60
2023-02-18T11:08:28.982Z,96.20
2023-02-18T11:10:57.386Z,96.20
2023-02-18T11:13:28.485Z,96.60
2023-02-18T11:15:58.473Z,96.30
2023-02-18T11:18:28.977Z,94.10
2023-02-18T11:20:59.711Z,94.80
2023-02-18T11:23:27.472Z,96.40
2023-02-18T11:26:01.874Z,94.80
2023-02-18T11:28:49.238Z,94.30
2023-02-18T11:31:26.210Z,93.50
2023-02-18T11:33:58.128Z,93.50
2023-02-18T11:36:31.269Z,93.00
2023-02-18T11:39:00.070Z,94.70
2023-02-18T11:41:41.097Z,94.70
2023-02-18T11:44:32.962Z,93.60
2023-02-18T11:47:02.234Z,95.40
2023-02-18T11:49:34.012Z,95.90
2023-02-18T11:52:24.017Z,97.30
2023-02-18T11:55:18.463Z,97.30
2023-02-18T11:58:22.305Z,99.90
2023-02-18T12:00:54.339Z,99.90
2023-02-18T12:03:41.561Z,99.90
2023-02-18T12:06:24.880Z,99.90
2023-02-18T12:09:01.667Z,99.90
2023-02-18T12:11:36.352Z,99.90
2023-02-18T12:14:09.820Z,99.90
2023-02-18T12:17:08.231Z,99.90
2023-02-18T12:19:57.147Z,99.90
2023-02-18T12:22:42.171Z,99.90
2023-02-18T12:25:37.602Z,99.90
2023-02-18T12:28:11.128Z,99.90
2023-02-18T12:30:51.303Z,99.90
2023-02-18T12:33:44.516Z,99.90
2023-02-18T12:36:31.376Z,99.90
2023-02-18T12:39:22.056Z,99.90
2023-02-18T12:42:13.954Z,99.90
2023-02-18T12:45:17.048Z,99.90
2023-02-18T12:47:58.707Z,99.90
2023-02-18T12:50:26.570Z,99.90
2023-02-18T12:53:17.033Z,99.90
2023-02-18T12:55:53.468Z,99.90
2023-02-18T12:58:42.277Z,99.80
2023-02-18T13:01:28.857Z,99.70
2023-02-18T13:04:15.044Z,99.40
2023-02-18T13:07:01.683Z,98.50
2023-02-18T13:09:56.547Z,98.70
2023-02-18T13:12:33.378Z,97.60
2023-02-18T13:15:27.626Z,97.50
2023-02-18T13:18:02.300Z,96.20
2023-02-18T13:20:41.224Z,96.30
2023-02-18T13:23:22.287Z,96.00
2023-02-18T13:26:08.137Z,96.10
2023-02-18T13:28:50.093Z,95.70
2023-02-18T13:31:46.039Z,95.90
2023-02-18T13:34:24.712Z,95.00
2023-02-18T13:37:20.837Z,95.60
2023-02-18T13:39:56.498Z,95.20
2023-02-18T13:42:30.179Z,95.60
2023-02-18T13:44:57.976Z,97.70
2023-02-18T13:47:47.306Z,97.30
2023-02-18T13:50:27.146Z,97.80
2023-02-18T13:53:04.384Z,98.40
2023-02-18T13:55:57.748Z,98.40
2023-02-18T13:58:29.634Z,97.70
2023-02-18T14:01:05.791Z,97.30
2023-02-18T14:03:38.411Z,96.40
2023-02-18T14:06:17.360Z,96.30
2023-02-18T14:08:45.855Z,96.60
2023-02-18T14:11:13.995Z,95.60
2023-02-18T14:13:53.562Z,96.10
2023-02-18T14:16:21.839Z,95.70
2023-02-18T14:19:02.609Z,95.70
2023-02-18T14:22:18.192Z,95.00
2023-02-18T14:24:57.421Z,95.40
2023-02-18T14:27:25.311Z,95.00
2023-02-18T14:29:54.332Z,94.40
2023-02-18T14:32:22.748Z,94.20
2023-02-18T14:35:10.860Z,94.00
2023-02-18T14:38:13.238Z,94.40
2023-02-18T14:41:28.638Z,93.70
2023-02-18T14:44:24.275Z,93.00
2023-02-18T14:47:19.486Z,93.40
2023-02-18T14:49:52.937Z,92.30
2023-02-18T14:53:03.343Z,91.10
2023-02-18T14:55:35.271Z,91.60
2023-02-18T14:58:14.015Z,91.80
2023-02-18T15:00:43.887Z,91.50
2023-02-18T15:03:20.680Z,91.00
2023-02-18T15:05:53.536Z,91.00
2023-02-18T15:08:25.232Z,90.90
2023-02-18T15:11:05.734Z,91.10
2023-02-18T15:13:36.996Z,90.30
2023-02-18T15:16:09.006Z,90.40
2023-02-18T15:18:38.423Z,90.50
2023-02-18T15:21:18.360Z,90.40
2023-02-18T15:23:47.523Z,90.50
2023-02-18T15:26:16.466Z,90.10
2023-02-18T15:29:01.892Z,90.50
2023-02-18T15:31:36.184Z,90.30
2023-02-18T15:34:36.000Z,90.10
2023-02-18T15:37:07.140Z,90.10
2023-02-18T15:39:38.708Z,90.10
2023-02-18T15:42:29.077Z,90.10
2023-02-18T15:45:22.011Z,90.50
2023-02-18T15:48:00.667Z,90.70
2023-02-18T15:50:38.710Z,90.40
2023-02-18T15:53:14.164Z,90.20
2023-02-18T15:55:46.417Z,90.30
2023-02-18T15:58:18.830Z,90.70
2023-02-18T16:00:53.458Z,90.70
2023-02-18T16:03:39.600Z,91.00
2023-02-18T16:06:29.763Z,90.50
2023-02-18T16:09:03.923Z,90.40
2023-02-18T16:11:40.556Z,90.50
2023-02-18T16:14:42.265Z,91.00
2023-02-18T16:17:13.242Z,91.20
2023-02-18T16:20:04.316Z,91.00
2023-02-18T16:22:36.598Z,91.20
2023-02-18T16:25:24.071Z,90.90
2023-02-18T16:27:58.403Z,90.80
2023-02-18T16:30:30.646Z,90.90
2023-02-18T16:32:59.700Z,91.00
2023-02-18T16:35:32.718Z,91.50
2023-02-18T16:38:03.019Z,91.20
2023-02-18T16:40:33.484Z,91.30
2023-02-18T16:43:09.814Z,91.50
2023-02-18T16:45:43.869Z,91.40
2023-02-18T16:48:22.359Z,91.30
2023-02-18T16:50:51.789Z,91.80
2023-02-18T16:53:20.948Z,92.10
2023-02-18T16:55:51.065Z,92.30
2023-02-18T16:58:18.919Z,92.30
2023-02-18T17:00:47.762Z,92.20
2023-02-18T17:03:16.520Z,92.30
2023-02-18T17:05:46.353Z,92.30
2023-02-18T17:08:24.095Z,92.50
2023-02-18T17:10:54.962Z,92.00
2023-02-18T17:13:26.231Z,92.00
2023-02-18T17:15:56.872Z,91.60
2023-02-18T17:18:27.167Z,91.40
2023-02-18T17:20:55.238Z,91.30
2023-02-18T17:23:24.685Z,91.20
2023-02-18T17:25:53.784Z,91.40
2023-02-18T17:28:24.257Z,91.00
2023-02-18T17:30:58.871Z,90.90
2023-02-18T17:33:27.651Z,90.60
2023-02-18T17:35:55.915Z,90.80
2023-02-18T17:38:24.271Z,91.00
2023-02-18T17:40:52.684Z,90.30
2023-02-18T17:43:25.747Z,89.80
2023-02-18T17:45:59.370Z,89.00
2023-02-18T17:48:28.816Z,89.60
2023-02-18T17:50:57.726Z,89.60
2023-02-18T17:53:26.794Z,89.00
2023-02-18T17:55:55.297Z,88.70
2023-02-18T17:58:26.387Z,89.70
2023-02-18T18:00:57.951Z,88.70
2023-02-18T18:03:26.107Z,89.10
2023-02-18T18:05:57.063Z,88.90
2023-02-18T18:08:25.356Z,88.90
2023-02-18T18:10:56.155Z,88.30
2023-02-18T18:13:27.656Z,87.50
2023-02-18T18:15:57.852Z,86.80
2023-02-18T18:18:28.156Z,86.10
2023-02-18T18:21:02.370Z,83.30
2023-02-18T18:23:36.016Z,83.80
2023-02-18T18:26:04.980Z,84.40
2023-02-18T18:28:34.717Z,82.40
2023-02-18T18:31:05.528Z,84.80
2023-02-18T18:33:37.906Z,84.40
2023-02-18T18:36:07.236Z,86.20
2023-02-18T18:38:36.262Z,87.30
2023-02-18T18:41:05.245Z,87.10
2023-02-18T18:43:36.719Z,88.30
2023-02-18T18:46:04.783Z,87.60
2023-02-18T18:48:33.697Z,88.70
2023-02-18T18:51:04.450Z,88.60
2023-02-18T18:53:36.750Z,90.30
2023-02-18T18:56:07.908Z,89.90
2023-02-18T18:58:37.953Z,89.50
2023-02-18T19:01:13.655Z,90.50
2023-02-18T19:03:42.900Z,90.10
2023-02-18T19:06:12.371Z,90.00
2023-02-18T19:08:43.427Z,88.80
2023-02-18T19:11:16.407Z,87.60
2023-02-18T19:13:46.396Z,87.70
2023-02-18T19:16:34.753Z,87.00
2023-02-18T19:19:03.698Z,85.80
2023-02-18T19:21:34.675Z,89.20
2023-02-18T19:24:04.666Z,88.50
2023-02-18T19:26:33.359Z,87.80
2023-02-18T19:29:02.484Z,87.70
2023-02-18T19:31:33.384Z,89.60
2023-02-18T19:34:01.981Z,88.30
2023-02-18T19:36:33.667Z,87.80
2023-02-18T19:39:02.374Z,88.90
2023-02-18T19:41:32.355Z,86.90
2023-02-18T19:44:01.186Z,88.60
2023-02-18T19:46:30.336Z,87.40
2023-02-18T19:48:58.722Z,87.20
2023-02-18T19:51:28.794Z,87.80
2023-02-18T19:53:59.676Z,87.00
2023-02-18T19:56:30.093Z,86.60
2023-02-18T19:58:59.384Z,86.90
2023-02-18T20:01:28.177Z,86.90
2023-02-18T20:03:58.119Z,86.90
2023-02-18T20:06:28.640Z,86.70
2023-02-18T20:08:58.527Z,86.00
2023-02-18T20:11:31.857Z,86.00
2023-02-18T20:14:02.417Z,85.90
2023-02-18T20:16:31.349Z,86.10
2023-02-18T20:19:00.466Z,85.60
2023-02-18T20:21:29.312Z,85.60
2023-02-18T20:23:58.890Z,85.40
2023-02-18T20:26:29.968Z,86.70
2023-02-18T20:29:03.666Z,86.00
2023-02-18T20:31:32.316Z,87.00
2023-02-18T20:34:01.585Z,86.80
2023-02-18T20:36:31.624Z,86.60
2023-02-18T20:39:14.514Z,86.70
2023-02-18T20:41:46.044Z,86.80
2023-02-18T20:44:17.657Z,87.30
2023-02-18T20:46:49.465Z,86.50
2023-02-18T20:49:20.987Z,87.30
2023-02-18T20:51:50.684Z,86.40
2023-02-18T20:54:20.756Z,86.40
2023-02-18T20:56:50.596Z,85.90
2023-02-18T20:59:22.154Z,86.40
2023-02-18T21:01:50.687Z,85.80
2023-02-18T21:04:21.715Z,86.40
2023-02-18T21:06:51.011Z,86.60
2023-02-18T21:09:22.376Z,86.20
2023-02-18T21:11:51.130Z,86.70
2023-02-18T21:14:19.917Z,87.30
2023-02-18T21:16:48.941Z,87.00
2023-02-18T21:19:18.861Z,87.50
2023-02-18T21:21:48.027Z,87.70
2023-02-18T21:24:16.373Z,87.50
2023-02-18T21:26:45.420Z,87.40
2023-02-18T21:29:17.156Z,87.50
2023-02-18T21:31:46.106Z,87.90
2023-02-18T21:34:19.306Z,87.80
2023-02-18T21:36:48.138Z,88.00
2023-02-18T21:39:16.232Z,88.20
2023-02-18T21:41:44.994Z,87.60
2023-02-18T21:44:14.505Z,88.00
2023-02-18T21:46:42.851Z,88.00
2023-02-18T21:49:12.595Z,87.40
2023-02-18T21:51:58.049Z,87.90
2023-02-18T21:54:30.874Z,87.80
2023-02-18T21:57:00.357Z,87.80
2023-02-18T21:59:29.425Z,87.70
2023-02-18T22:02:00.361Z,86.30
2023-02-18T22:04:33.919Z,87.30
2023-02-18T22:07:03.700Z,86.70
2023-02-18T22:09:31.778Z,86.30
2023-02-18T22:11:59.426Z,85.80
2023-02-18T22:14:27.572Z,85.80
2023-02-18T22:16:55.507Z,86.60
2023-02-18T22:19:23.419Z,87.60
2023-02-18T22:21:51.293Z,85.90
2023-02-18T22:24:19.530Z,86.20
2023-02-18T22:26:48.456Z,86.30
2023-02-18T22:29:20.990Z,86.70
2023-02-18T22:31:49.708Z,85.70
2023-02-18T22:34:17.436Z,85.10
2023-02-18T22:36:45.332Z,86.10
2023-02-18T22:39:15.220Z,86.00
2023-02-18T22:41:43.606Z,85.50
2023-02-18T22:44:14.307Z,85.80
2023-02-18T22:46:41.944Z,85.80
2023-02-18T22:49:09.685Z,85.00
2023-02-18T22:51:42.855Z,86.00
2023-02-18T22:54:16.641Z,86.00
2023-02-18T22:56:46.805Z,86.10
2023-02-18T22:59:16.503Z,85.10
2023-02-18T23:01:50.043Z,86.00
2023-02-18T23:04:19.593Z,86.00
2023-02-18T23:06:47.909Z,86.10
2023-02-18T23:09:18.959Z,87.00
2023-02-18T23:11:53.334Z,86.40
2023-02-18T23:14:22.412Z,86.70
2023-02-18T23:17:13.222Z,87.40
2023-02-18T23:19:52.134Z,87.40
2023-02-18T23:22:33.665Z,88.00
2023-02-18T23:25:02.322Z,88.30
2023-02-18T23:27:31.227Z,87.80
2023-02-18T23:29:59.167Z,88.10
2023-02-18T23:32:28.957Z,88.50
2023-02-18T23:34:56.552Z,88.20
2023-02-18T23:37:44.380Z,88.50
2023-02-18T23:40:13.930Z,88.50
2023-02-18T23:42:41.612Z,88.20
2023-02-18T23:45:09.344Z,88.20
2023-02-18T23:47:36.908Z,87.70
2023-02-18T23:50:05.191Z,88.20
2023-02-18T23:52:32.774Z,87.40
2023-02-18T23:55:18.828Z,87.20
2023-02-18T23:57:46.579Z,87.00
